Data for 07/28/2015

Time Sea-Level Adjusted Pressure Absolute Pressure Temperature Relative Humidity Dew Point   
(mb) (inHg) (mb) (inHg) (C) (F) (%) (C) (F)
00:05 1022 30.18 851 25.13 8.4 47.2 69 3 37.5
00:10 1022 30.18 851 25.13 8.4 47.1 71 3.5 38.3
00:15 1022 30.18 851 25.13 8.3 47 71 3.4 38.2
00:20 1022 30.18 851 25.13 8.3 46.9 71 3.3 38
00:25 1022 30.18 851 25.13 8.2 46.8 73 3.6 38.4
00:30 1022 30.18 851 25.13 8.1 46.7 73 3.6 38.5
00:35 1022 30.18 851 25.13 8 46.5 74 3.8 38.8
00:40 1022 30.18 851 25.13 7.9 46.2 75 3.8 38.8
00:45 1022 30.18 851 25.13 7.7 45.9 75 3.6 38.6
00:50 1022 30.18 851 25.13 7.7 45.8 74 3.4 38.1
00:55 1022 30.18 851 25.13 7.8 46 73 3.2 37.8
01:00 1022 30.18 851 25.13 7.7 45.8 74 3.3 37.9
01:05 1022 30.18 851 25.13 7.6 45.8 73 3.2 37.7
01:10 1022 30.18 851 25.13 7.7 45.9 72 3.1 37.5
01:15 1022 30.18 851 25.13 7.8 46 72 3 37.5
01:20 1022 30.18 851 25.13 7.9 46.1 71 3 37.4
01:25 1022 30.18 851 25.13 7.9 46.3 69 2.7 36.8
01:30 1022 30.18 851 25.13 8 46.4 69 2.7 36.9
01:35 1022 30.18 851 25.13 8 46.5 69 2.8 37.1
01:40 1022 30.18 851 25.13 8 46.5 68 2.6 36.7
01:45 1022 30.18 851 25.13 8 46.5 68 2.5 36.5
01:50 1022 30.18 851 25.13 8 46.5 68 2.6 36.6
01:55 1022 30.18 851 25.13 8 46.4 69 2.7 36.8
02:00 1022 30.18 851 25.13 8 46.3 68 2.5 36.5
02:05 1022 30.18 851 25.13 8 46.4 68 2.5 36.6
02:10 1022 30.18 851 25.13 8 46.4 68 2.5 36.5
02:15 1022 30.18 851 25.13 8 46.5 68 2.6 36.6
02:20 1022 30.18 851 25.13 8 46.5 68 2.6 36.6
02:25 1022 30.18 851 25.13 8.1 46.5 68 2.6 36.6
02:30 1022 30.18 851 25.13 8.1 46.6 69 2.7 36.9
02:35 1022 30.18 851 25.13 8.2 46.7 67 2.4 36.2
02:40 1022 30.18 851 25.13 8.3 46.9 66 2.4 36.4
02:45 1022 30.18 851 25.13 8.3 47 67 2.5 36.6
02:50 1022 30.18 851 25.13 8.3 46.9 67 2.6 36.7
02:55 1022 30.18 851 25.13 8.3 46.9 67 2.6 36.6
03:00 1022 30.18 851 25.13 8.2 46.7 67 2.5 36.5
03:05 1022 30.18 851 25.13 8.2 46.7 67 2.5 36.5
03:10 1022 30.18 851 25.13 8.1 46.6 69 2.7 36.9
03:15 1022 30.18 851 25.13 8.1 46.5 69 2.7 36.8
03:20 1022 30.18 851 25.13 8.1 46.6 68 2.7 36.8
03:25 1022 30.18 851 25.13 8.1 46.5 67 2.4 36.4
03:30 1022 30.18 851 25.13 8.1 46.5 67 2.4 36.3
03:35 1022 30.18 851 25.13 8.1 46.6 67 2.5 36.4
03:40 1022 30.18 852 25.16 8.1 46.6 67 2.4 36.3
03:45 1022 30.18 851 25.13 8.1 46.6 67 2.3 36.2
03:50 1022 30.18 852 25.16 8.2 46.7 67 2.4 36.3
03:55 1022 30.18 852 25.16 8.2 46.8 66 2.3 36.2
04:00 1023 30.21 852 25.16 8.3 47 65 2.2 36
04:05 1023 30.21 852 25.16 8.3 47 65 2.3 36.1
04:10 1023 30.21 852 25.16 8.4 47 65 2.1 35.9
04:15 1023 30.21 852 25.16 8.4 47.1 65 2.2 35.9
04:20 1023 30.21 852 25.16 8.4 47 65 2.1 35.8
04:25 1023 30.21 852 25.16 8.4 47.1 65 2.1 35.8
04:30 1023 30.21 852 25.16 8.4 47.1 64 1.9 35.5
04:35 1023 30.21 852 25.16 8.5 47.3 63 2 35.5
04:40 1023 30.21 852 25.16 8.5 47.3 63 1.8 35.2
04:45 1023 30.21 852 25.16 8.6 47.4 62 1.8 35.3
04:50 1023 30.21 852 25.16 8.6 47.4 62 1.7 35.1
04:55 1023 30.21 852 25.16 8.6 47.5 61 1.6 34.9
05:00 1023 30.21 852 25.16 8.6 47.5 61 1.4 34.6
05:05 1023 30.21 852 25.16 8.6 47.5 61 1.6 34.8
05:10 1023 30.21 852 25.16 8.5 47.2 63 1.8 35.2
05:15 1023 30.21 852 25.16 8.3 47 63 1.6 34.9
05:20 1023 30.21 852 25.16 8.3 46.9 63 1.6 35
05:25 1023 30.21 852 25.16 8.2 46.8 64 1.7 35.1
05:30 1023 30.21 852 25.16 8.2 46.8 64 1.7 35.1
05:35 1023 30.21 853 25.19 8.2 46.7 64 1.8 35.2
05:40 1023 30.21 852 25.16 8.2 46.8 64 1.7 35.1
05:45 1023 30.21 853 25.19 8.3 46.9 64 1.8 35.3
05:50 1023 30.21 853 25.19 8.4 47 63 1.8 35.2
05:55 1023 30.21 853 25.19 8.5 47.2 62 1.7 35
06:00 1023 30.21 853 25.19 8.5 47.3 62 1.6 34.9
06:05 1023 30.21 853 25.19 8.6 47.5 62 1.7 35.1
06:10 1023 30.21 853 25.19 8.7 47.6 62 1.8 35.3
06:15 1024 30.24 853 25.19 8.7 47.6 62 1.8 35.2
06:20 1024 30.24 853 25.19 8.8 47.8 61 1.7 35.1
06:25 1024 30.24 853 25.19 8.9 47.9 61 1.8 35.2
06:30 1024 30.24 853 25.19 8.9 48.1 61 1.8 35.2
06:35 1024 30.24 853 25.19 9 48.1 61 1.9 35.4
06:40 1024 30.24 853 25.19 9 48.2 61 1.9 35.4
06:45 1024 30.24 853 25.19 9 48.3 60 1.8 35.3
06:50 1024 30.24 853 25.19 9 48.3 60 1.7 35
06:55 1024 30.24 853 25.19 9 48.2 61 2 35.6
07:00 1024 30.24 853 25.19 9 48.3 61 1.9 35.5
07:05 1024 30.24 853 25.19 9.1 48.3 61 2.1 35.7
07:10 1024 30.24 853 25.19 9.2 48.5 61 2.1 35.8
07:15 1024 30.24 853 25.19 9.3 48.7 60 2 35.7
07:20 1024 30.24 853 25.19 9.4 48.9 61 2.2 35.9
07:25 1024 30.24 853 25.19 9.5 49.1 61 2.3 36.1
07:30 1024 30.24 853 25.19 9.6 49.3 60 2.4 36.3
07:35 1024 30.24 853 25.19 9.7 49.5 60 2.4 36.3
07:40 1024 30.24 853 25.19 9.9 49.8 59 2.4 36.3
07:45 1024 30.24 853 25.19 10.1 50.2 59 2.4 36.4
07:50 1024 30.24 853 25.19 10.3 50.6 57 2.3 36.1
07:55 1024 30.24 854 25.22 10.6 51.1 57 2.4 36.3
08:00 1024 30.24 854 25.22 10.9 51.6 55 2.3 36.1
08:05 1024 30.24 854 25.22 11.3 52.3 54 2.4 36.3
08:10 1024 30.24 854 25.22 11.3 52.3 56 2.9 37.2
08:15 1024 30.24 854 25.22 11.5 52.6 51 1.9 35.4
08:20 1025 30.27 854 25.22 11.7 53.1 50 1.6 35
08:25 1025 30.27 854 25.22 11.8 53.3 50 1.9 35.4
08:30 1025 30.27 854 25.22 12 53.5 49 1.5 34.8
08:35 1025 30.27 854 25.22 12 53.5 49 1.7 35.1
08:40 1025 30.27 854 25.22 12.1 53.9 49 1.9 35.5
08:45 1025 30.27 854 25.22 12.1 53.9 48 1.6 34.9
08:50 1025 30.27 854 25.22 12.2 54 48 1.7 35.1
08:55 1025 30.27 854 25.22 12.3 54.1 49 1.8 35.3
09:00 1025 30.27 854 25.22 12.5 54.5 48 1.9 35.5
09:05 1025 30.27 854 25.22 12.7 54.8 46 1.4 34.5
09:10 1025 30.27 854 25.22 12.7 54.8 47 1.8 35.2
09:15 1025 30.27 854 25.22 12.8 55 48 2 35.6
09:20 1025 30.27 854 25.22 12.8 55.1 46 1.6 34.9
09:25 1025 30.27 854 25.22 13 55.3 46 1.7 35
09:30 1025 30.27 854 25.22 13.1 55.6 46 1.8 35.3
09:35 1025 30.27 854 25.22 13.2 55.7 47 2.1 35.7
09:40 1025 30.27 854 25.22 13.3 55.9 45 1.8 35.2
09:45 1025 30.27 854 25.22 13.3 55.9 45 1.6 34.8
09:50 1025 30.27 854 25.22 13.2 55.7 45 1.6 34.9
09:55 1025 30.27 854 25.22 13.3 56 44 1.5 34.8
10:00 1025 30.27 854 25.22 13.6 56.5 45 2 35.5
10:05 1025 30.27 854 25.22 13.7 56.7 44 1.8 35.2
10:10 1025 30.27 854 25.22 13.8 56.9 43 1.5 34.8
10:15 1025 30.27 854 25.22 13.7 56.7 44 1.9 35.4
10:20 1025 30.27 854 25.22 13.6 56.5 44 1.8 35.3
10:25 1025 30.27 854 25.22 13.6 56.5 44 1.7 35
10:30 1025 30.27 854 25.22 13.7 56.7 45 1.9 35.4
10:35 1025 30.27 854 25.22 13.9 56.9 44 2 35.6
10:40 1025 30.27 854 25.22 14.1 57.3 44 2 35.6
10:45 1025 30.27 854 25.22 14 57.2 44 1.9 35.5
10:50 1025 30.27 854 25.22 14 57.2 44 2.1 35.8
10:55 1025 30.27 854 25.22 14.2 57.5 44 2.1 35.8
11:00 1025 30.27 855 25.25 14.4 57.9 44 2.3 36.2
11:05 1025 30.27 855 25.25 14.3 57.8 44 2.4 36.3
11:10 1025 30.27 854 25.22 14.2 57.5 43 1.8 35.2
11:15 1025 30.27 854 25.22 14.4 57.8 43 2 35.6
11:20 1025 30.27 854 25.22 14.4 57.9 44 2.3 36.1
11:25 1025 30.27 855 25.25 14.3 57.7 43 2.1 35.8
11:30 1025 30.27 854 25.22 14.5 58.1 41 1.5 34.8
11:35 1025 30.27 854 25.22 14.7 58.5 42 2.1 35.7
11:40 1025 30.27 854 25.22 14.5 58 43 2.1 35.8
11:45 1025 30.27 854 25.22 15.1 59.2 41 2 35.6
11:50 1025 30.27 854 25.22 15.8 60.4 38 1.5 34.7
11:55 1025 30.27 854 25.22 15.8 60.4 39 1.9 35.5
12:00 1025 30.27 854 25.22 15.4 59.7 38 1.4 34.4
12:05 1025 30.27 854 25.22 15.3 59.5 38 1.1 34
12:10 1025 30.27 854 25.22 15.5 59.9 39 1.8 35.2
12:15 1025 30.27 854 25.22 15.7 60.2 38 1.7 35
12:20 1025 30.27 855 25.25 15.2 59.3 41 2.2 36
12:25 1025 30.27 855 25.25 14.9 58.8 41 1.7 35.1
12:30 1025 30.27 855 25.25 15 59 39 1.2 34.2
12:35 1025 30.27 855 25.25 15.4 59.7 39 1.5 34.6
12:40 1025 30.27 855 25.25 15.5 59.9 38 1.3 34.3
12:45 1026 30.3 855 25.25 15.1 59.2 39 1.4 34.6
12:50 1026 30.3 855 25.25 15 58.9 40 1.4 34.5
12:55 1026 30.3 855 25.25 15 58.9 39 1.1 34
13:00 1026 30.3 855 25.25 15.1 59.1 40 1.5 34.7
13:05 1026 30.3 855 25.25 15.2 59.4 38 0.9 33.7
13:10 1026 30.3 855 25.25 15.7 60.2 38 1.4 34.4
13:15 1026 30.3 855 25.25 15.8 60.4 37 1.3 34.4
13:20 1026 30.3 855 25.25 15.7 60.2 37 1.2 34.2
13:25 1026 30.3 855 25.25 15.7 60.2 36 0.8 33.5
13:30 1026 30.3 855 25.25 15.4 59.8 37 1 33.7
13:35 1026 30.3 855 25.25 15.4 59.7 38 1.1 34
13:40 1025 30.27 855 25.25 15.5 59.9 36 0.5 33
13:45 1025 30.27 855 25.25 15.9 60.7 36 0.9 33.6
13:50 1025 30.27 854 25.22 16.1 60.9 36 1 33.8
13:55 1025 30.27 854 25.22 16.3 61.4 35 0.8 33.4
14:00 1025 30.27 854 25.22 16.5 61.8 34 0.6 33.1
14:05 1025 30.27 854 25.22 16.6 61.9 34 0.9 33.6
14:10 1025 30.27 854 25.22 17.4 63.3 33 1.1 34
14:15 1025 30.27 854 25.22 17.4 63.4 32 0.5 32.9
14:20 1025 30.27 854 25.22 17.5 63.5 32 0.7 33.3
14:25 1025 30.27 854 25.22 18 64.3 31 0.8 33.4
14:30 1025 30.27 854 25.22 18.7 65.7 29 0.6 33
14:35 1025 30.27 854 25.22 18.5 65.3 30 0.8 33.4
14:40 1025 30.27 854 25.22 18.3 65 30 0.4 32.7
14:45 1025 30.27 854 25.22 18.3 65 31 1.1 34
14:50 1025 30.27 854 25.22 17.7 63.8 32 0.9 33.6
14:55 1025 30.27 854 25.22 17.8 64 30 0.2 32.4
15:00 1025 30.27 854 25.22 18.2 64.8 29 -0.1 31.9
15:05 1025 30.27 854 25.22 18.2 64.7 29 -0.2 31.7
15:10 1025 30.27 854 25.22 18.2 64.7 28 -0.3 31.5
15:15 1025 30.27 854 25.22 18.4 65.1 29 0.1 32.2
15:20 1025 30.27 854 25.22 18.4 65 30 0.6 33.1
15:25 1025 30.27 854 25.22 19.1 66.4 28 0.4 32.7
15:30 1025 30.27 854 25.22 18.7 65.6 28 0.2 32.3
15:35 1025 30.27 854 25.22 18.5 65.2 29 0.3 32.5
15:40 1025 30.27 854 25.22 19.2 66.6 29 0.9 33.7
15:45 1025 30.27 854 25.22 19.6 67.4 27 0.5 32.9
15:50 1025 30.27 854 25.22 19.4 67 29 1.1 34
15:55 1025 30.27 854 25.22 19 66.3 28 0.4 32.7
16:00 1025 30.27 854 25.22 18.7 65.7 27 -0.5 31.1
16:05 1025 30.27 854 25.22 19 66.1 28 -0 31.9
16:10 1025 30.27 854 25.22 18.9 65.9 28 -0.1 31.8
16:15 1025 30.27 854 25.22 18.9 66.1 27 -0.5 31.2
16:20 1025 30.27 854 25.22 19.3 66.8 24 -1.6 29.1
16:25 1025 30.27 854 25.22 19.7 67.4 24 -1.5 29.2
16:30 1025 30.27 854 25.22 19.9 67.9 25 -0.7 30.7
16:35 1025 30.27 854 25.22 19.4 67 24 -1.3 29.7
16:40 1025 30.27 854 25.22 19.1 66.3 25 -1.1 30
16:45 1025 30.27 854 25.22 19.4 66.8 25 -0.8 30.6
16:50 1025 30.27 854 25.22 18.6 65.5 28 -0.1 31.8
16:55 1025 30.27 854 25.22 18.1 64.6 27 -1.2 29.8
17:00 1025 30.27 854 25.22 18.2 64.8 28 -0.4 31.3
17:05 1025 30.27 854 25.22 18.6 65.4 26 -0.9 30.3
17:10 1025 30.27 854 25.22 18.8 65.9 27 -0.5 31.1
17:15 1025 30.27 854 25.22 18.5 65.3 28 -0.2 31.7
17:20 1025 30.27 854 25.22 18.6 65.5 27 -0.6 30.9
17:25 1025 30.27 854 25.22 18.8 65.8 28 -0.1 31.8
17:30 1025 30.27 854 25.22 18.7 65.6 29 0.4 32.7
17:35 1025 30.27 854 25.22 18.5 65.3 29 0.3 32.5
17:40 1025 30.27 854 25.22 18.3 64.9 30 0.4 32.8
17:45 1025 30.27 854 25.22 18.5 65.3 28 -0.1 31.8
17:50 1025 30.27 854 25.22 18.6 65.5 29 0.4 32.8
17:55 1025 30.27 854 25.22 18.9 66 26 -0.7 30.7
18:00 1025 30.27 854 25.22 19 66.2 28 0.2 32.3
18:05 1025 30.27 854 25.22 19.1 66.4 27 -0.2 31.6
18:10 1025 30.27 854 25.22 19 66.2 28 0.1 32.1
18:15 1025 30.27 854 25.22 18.7 65.6 29 0.6 33
18:20 1025 30.27 854 25.22 18.5 65.3 31 1.1 33.9
18:25 1025 30.27 854 25.22 18.2 64.7 31 0.8 33.4
18:30 1025 30.27 854 25.22 18.1 64.6 32 1.4 34.5
18:35 1025 30.27 854 25.22 18 64.4 33 1.6 34.8
18:40 1025 30.27 854 25.22 17.8 64.1 33 1.3 34.3
18:45 1025 30.27 854 25.22 17.7 63.8 32 1 33.8
18:50 1025 30.27 854 25.22 17.7 63.8 33 1.3 34.4
18:55 1025 30.27 854 25.22 17.5 63.5 34 1.4 34.5
19:00 1025 30.27 854 25.22 17.4 63.3 34 1.4 34.6
19:05 1025 30.27 854 25.22 17.3 63.2 34 1.6 34.8
19:10 1025 30.27 854 25.22 17.2 62.9 34 1.1 34.1
19:15 1025 30.27 854 25.22 17.1 62.8 35 1.8 35.2
19:20 1025 30.27 854 25.22 17 62.6 34 1.1 33.9
19:25 1025 30.27 854 25.22 17 62.5 34 1.1 33.9
19:30 1025 30.27 854 25.22 16.7 62.1 35 1.4 34.5
19:35 1025 30.27 854 25.22 16.5 61.7 36 1.3 34.4
19:40 1025 30.27 854 25.22 16.3 61.4 36 1.4 34.5
19:45 1025 30.27 854 25.22 16.2 61.1 37 1.4 34.5
19:50 1025 30.27 854 25.22 16 60.8 38 1.8 35.3
19:55 1025 30.27 854 25.22 15.6 60.1 38 1.5 34.6
20:00 1025 30.27 854 25.22 15.4 59.8 38 1.5 34.6
20:05 1025 30.27 854 25.22 15.1 59.2 39 1.3 34.4
20:10 1025 30.27 854 25.22 14.9 58.9 42 2.1 35.8
20:15 1025 30.27 854 25.22 14.5 58.1 44 2.5 36.6
20:20 1025 30.27 854 25.22 13.8 56.9 46 2.6 36.7
20:25 1025 30.27 854 25.22 13.6 56.4 46 2.2 36
20:30 1025 30.27 855 25.25 13.4 56.1 46 2.2 35.9
20:35 1025 30.27 855 25.25 13.3 55.9 46 2 35.6
20:40 1025 30.27 855 25.25 13.3 56 45 1.6 34.9
20:45 1025 30.27 855 25.25 13.4 56.2 44 1.5 34.7
20:50 1026 30.3 855 25.25 13.6 56.5 43 1.2 34.2
20:55 1026 30.3 855 25.25 13.7 56.6 43 1.5 34.7
21:00 1026 30.3 855 25.25 13.5 56.3 43 1.1 34.1
21:05 1026 30.3 855 25.25 13.6 56.4 43 1.3 34.4
21:10 1026 30.3 855 25.25 13.7 56.6 42 1.1 34
21:15 1026 30.3 855 25.25 13.5 56.3 44 1.6 34.8
21:20 1026 30.3 855 25.25 13.4 56 43 1 33.8
21:25 1026 30.3 855 25.25 13.4 56 43 1.2 34.1
21:30 1026 30.3 855 25.25 13.4 56 43 1.1 34
21:35 1026 30.3 855 25.25 13.3 55.9 44 1.2 34.2
21:40 1026 30.3 855 25.25 13.3 55.9 43 1.1 34.1
21:45 1026 30.3 855 25.25 13.2 55.7 44 1.2 34.2
21:50 1026 30.3 855 25.25 13 55.5 44 1.1 33.9
21:55 1026 30.3 855 25.25 13.2 55.7 45 1.5 34.7
22:00 1026 30.3 855 25.25 12.9 55.2 46 1.6 34.9
22:05 1026 30.3 855 25.25 12.7 54.9 47 1.7 35.1
22:10 1026 30.3 855 25.25 12.8 55 46 1.5 34.8
22:15 1026 30.3 855 25.25 12.9 55.3 46 1.7 35.1
22:20 1026 30.3 855 25.25 13 55.5 46 1.9 35.4
22:25 1026 30.3 855 25.25 12.8 55 48 2.2 36
22:30 1026 30.3 855 25.25 12.6 54.6 49 2.3 36.2
22:35 1026 30.3 855 25.25 12.6 54.6 49 2.2 36
22:40 1026 30.3 855 25.25 12.5 54.6 50 2.4 36.3
22:45 1026 30.3 855 25.25 12.4 54.2 51 2.5 36.5
22:50 1026 30.3 855 25.25 12.3 54.1 50 2.3 36.1
22:55 1026 30.3 855 25.25 12.3 54.2 49 2.1 35.8
23:00 1026 30.3 855 25.25 12.3 54.2 51 2.6 36.7
23:05 1026 30.3 855 25.25 12 53.6 54 2.9 37.3
23:10 1026 30.3 855 25.25 11.7 53.1 53 2.6 36.7
23:15 1026 30.3 855 25.25 11.8 53.3 52 2.2 36
23:20 1026 30.3 855 25.25 12.1 53.9 52 2.7 36.9
23:25 1026 30.3 855 25.25 11.9 53.4 53 2.6 36.7
23:30 1026 30.3 855 25.25 11.7 53 54 2.8 37.1
23:35 1026 30.3 855 25.25 11.5 52.8 53 2.5 36.4
23:40 1026 30.3 855 25.25 11.4 52.5 54 2.5 36.6
23:45 1026 30.3 855 25.25 11.3 52.4 55 2.6 36.6
23:50 1026 30.3 855 25.25 11.2 52.2 55 2.6 36.7
23:55 1026 30.3 855 25.25 11.2 52.2 55 2.5 36.5
24:00 1026 30.3 855 25.25 11.2 52.1 56 2.7 36.9